Time;durP1;ratioP1;P1;durP2;ratioP2;P2;SDS_P1;SDS_P2;PMS_P1;PMS_P2;Temp;Humidity;BMP_temperature;BMP_pressure;BME280_temperature;BME280_humidity;BME280_pressure;Samples;Min_cycle;Max_cycle;Signal;HPM_P1;HPM_P2
2023/10/13 00:00:25;;;;;;;11.65;7.57;;;;;;;;;;5048688;28;20037;-80
2023/10/13 00:02:52;;;;;;;10.57;7.05;;;;;;;;;;5049873;28;20082;-80
2023/10/13 00:05:17;;;;;;;15.70;7.75;;;;;;;;;;5047395;28;20067;-80
2023/10/13 00:07:42;;;;;;;11.85;6.07;;;;;;;;;;5046675;28;20092;-80
2023/10/13 00:10:18;;;;;;;10.50;6.73;;;;;;;;;;5053874;28;20076;-80
2023/10/13 00:12:49;;;;;;;11.20;7.30;;;;;;;;;;5051401;28;20997;-80
2023/10/13 00:15:15;;;;;;;12.63;7.10;;;;;;;;;;5037583;28;20025;-79
2023/10/13 00:17:41;;;;;;;9.65;6.00;;;;;;;;;;5047364;28;20044;-81
2023/10/13 00:20:12;;;;;;;11.40;6.50;;;;;;;;;;5049964;28;20036;-81
2023/10/13 00:22:40;;;;;;;11.43;6.82;;;;;;;;;;5046305;28;20165;-81
2023/10/13 00:25:06;;;;;;;11.13;6.78;;;;;;;;;;5046293;28;20063;-81
2023/10/13 00:32:46;;;;;;;10.18;6.85;;;;;;;;;;5047390;28;20055;-81
2023/10/13 00:35:14;;;;;;;12.88;6.97;;;;;;;;;;5050589;28;20628;-81
2023/10/13 00:37:46;;;;;;;11.95;7.80;;;;;;;;;;5035943;28;20025;-81
2023/10/13 00:40:24;;;;;;;;;;;;;;;;;;5035841;28;20033;-81
2023/10/13 00:42:52;;;;;;;13.50;6.63;;;;;;;;;;5032689;28;19909;-81
2023/10/13 00:45:17;;;;;;;11.75;7.53;;;;;;;;;;5049312;28;20039;-81
2023/10/13 00:47:50;;;;;;;10.75;6.85;;;;;;;;;;5044563;28;20029;-81
2023/10/13 00:50:17;;;;;;;13.10;7.80;;;;;;;;;;5043523;28;20037;-81
2023/10/13 00:52:46;;;;;;;12.30;6.85;;;;;;;;;;5053089;28;20522;-81
2023/10/13 00:55:13;;;;;;;10.38;7.95;;;;;;;;;;5049267;28;20086;-81
2023/10/13 00:57:40;;;;;;;13.25;7.03;;;;;;;;;;5044941;28;20059;-81
2023/10/13 01:00:18;;;;;;;10.68;6.40;;;;;;;;;;5047875;28;20033;-81
2023/10/13 01:02:44;;;;;;;10.25;6.50;;;;;;;;;;5043780;28;20095;-81
2023/10/13 01:05:09;;;;;;;10.55;7.07;;;;;;;;;;5035417;28;20439;-81
2023/10/13 01:07:37;;;;;;;8.68;5.60;;;;;;;;;;5049239;28;20033;-81
2023/10/13 01:10:04;;;;;;;9.80;6.55;;;;;;;;;;5032429;28;20021;-81
2023/10/13 01:12:30;;;;;;;13.00;7.65;;;;;;;;;;5046697;28;20033;-81
2023/10/13 01:14:59;;;;;;;10.27;7.22;;;;;;;;;;5047100;28;20035;-81
2023/10/13 01:17:31;;;;;;;13.38;6.85;;;;;;;;;;5046006;28;20049;-81
2023/10/13 01:19:58;;;;;;;11.60;7.45;;;;;;;;;;5031326;28;20029;-80
2023/10/13 01:22:23;;;;;;;16.88;7.93;;;;;;;;;;5050017;28;20415;-80
2023/10/13 01:24:48;;;;;;;13.02;8.20;;;;;;;;;;5031635;28;20111;-80
2023/10/13 01:27:17;;;;;;;9.95;6.70;;;;;;;;;;5045915;28;20031;-81
2023/10/13 01:29:50;;;;;;;12.00;7.35;;;;;;;;;;5011288;28;20510;-81
2023/10/13 01:32:16;;;;;;;13.50;7.93;;;;;;;;;;5032471;28;20029;-80
2023/10/13 01:34:45;;;;;;;15.60;7.35;;;;;;;;;;5051120;28;20030;-80
2023/10/13 01:37:11;;;;;;;8.95;5.88;;;;;;;;;;5043729;28;20041;-80
2023/10/13 01:39:36;;;;;;;10.18;5.85;;;;;;;;;;5045261;28;20155;-80
2023/10/13 01:42:02;;;;;;;12.90;5.85;;;;;;;;;;5043333;28;20028;-80
2023/10/13 01:44:33;;;;;;;11.32;7.38;;;;;;;;;;5042500;28;20555;-80
2023/10/13 01:46:59;;;;;;;11.13;7.55;;;;;;;;;;5030803;28;20029;-80
2023/10/13 01:49:24;;;;;;;11.52;6.65;;;;;;;;;;5050653;28;20473;-80
2023/10/13 01:51:50;;;;;;;9.30;5.82;;;;;;;;;;5050370;28;20020;-80
2023/10/13 01:54:15;;;;;;;8.82;5.80;;;;;;;;;;5047833;28;20032;-80
2023/10/13 01:56:43;;;;;;;10.82;5.55;;;;;;;;;;5043793;28;20034;-80
2023/10/13 01:59:12;;;;;;;9.90;6.40;;;;;;;;;;5042560;28;20021;-80
2023/10/13 02:01:39;;;;;;;9.20;6.15;;;;;;;;;;5031303;28;20029;-80
2023/10/13 02:04:06;;;;;;;10.00;6.28;;;;;;;;;;5034337;28;20445;-80
2023/10/13 02:06:36;;;;;;;13.38;7.25;;;;;;;;;;5045845;28;20086;-80
2023/10/13 02:09:16;;;;;;;10.48;5.70;;;;;;;;;;5048218;28;20013;-80
2023/10/13 02:11:52;;;;;;;12.35;6.45;;;;;;;;;;5047315;28;20029;-80
2023/10/13 02:14:22;;;;;;;11.25;6.05;;;;;;;;;;5043606;28;20021;-80
2023/10/13 02:16:49;;;;;;;9.00;5.60;;;;;;;;;;5049100;28;20043;-80
2023/10/13 02:19:16;;;;;;;8.80;6.53;;;;;;;;;;5045707;28;20025;-80
2023/10/13 02:21:43;;;;;;;11.65;7.35;;;;;;;;;;5048394;28;20032;-80
2023/10/13 02:24:18;;;;;;;12.30;6.13;;;;;;;;;;5046149;28;20041;-81
2023/10/13 02:26:46;;;;;;;10.20;6.20;;;;;;;;;;5026622;28;20034;-81
2023/10/13 02:29:17;;;;;;;9.40;5.60;;;;;;;;;;5034299;28;20504;-80
2023/10/13 02:31:53;;;;;;;8.98;6.47;;;;;;;;;;5049368;28;20103;-80
2023/10/13 02:34:19;;;;;;;10.10;5.90;;;;;;;;;;5033457;28;20107;-81
2023/10/13 02:36:48;;;;;;;9.17;5.67;;;;;;;;;;5048028;28;20156;-81
2023/10/13 02:39:15;;;;;;;11.95;6.93;;;;;;;;;;5042976;28;20659;-80
2023/10/13 02:41:42;;;;;;;9.30;6.07;;;;;;;;;;5042259;28;20564;-81
2023/10/13 02:44:08;;;;;;;9.18;6.25;;;;;;;;;;5050511;28;20417;-81
2023/10/13 02:46:39;;;;;;;8.80;5.80;;;;;;;;;;5032462;28;20037;-81
2023/10/13 02:49:10;;;;;;;8.27;5.82;;;;;;;;;;5050742;28;20112;-81
2023/10/13 02:51:36;;;;;;;11.35;6.68;;;;;;;;;;5042730;28;20445;-81
2023/10/13 02:54:03;;;;;;;9.95;6.80;;;;;;;;;;5044170;28;20021;-81
2023/10/13 02:56:28;;;;;;;10.55;7.40;;;;;;;;;;5044386;28;20559;-81
2023/10/13 02:58:56;;;;;;;10.60;6.30;;;;;;;;;;5031030;28;20048;-81
2023/10/13 03:01:26;;;;;;;12.57;6.88;;;;;;;;;;5033070;28;20115;-82
2023/10/13 03:03:54;;;;;;;11.07;6.78;;;;;;;;;;5032277;28;20037;-81
2023/10/13 03:06:23;;;;;;;9.57;5.90;;;;;;;;;;5046960;28;20017;-80
2023/10/13 03:08:48;;;;;;;11.23;6.47;;;;;;;;;;5050845;28;20540;-80
2023/10/13 03:11:14;;;;;;;11.07;6.88;;;;;;;;;;5049463;28;20021;-81
2023/10/13 03:13:45;;;;;;;8.52;6.40;;;;;;;;;;5035840;28;20038;-81
2023/10/13 03:16:11;;;;;;;10.45;6.63;;;;;;;;;;5037373;28;20024;-81
2023/10/13 03:18:36;;;;;;;9.30;6.10;;;;;;;;;;5046577;28;20508;-80
2023/10/13 03:21:02;;;;;;;8.10;5.35;;;;;;;;;;5048979;28;20029;-80
2023/10/13 03:23:27;;;;;;;9.57;6.70;;;;;;;;;;5047718;28;20037;-81
2023/10/13 03:25:55;;;;;;;9.77;6.40;;;;;;;;;;5052054;28;20031;-81
2023/10/13 03:28:24;;;;;;;11.10;6.65;;;;;;;;;;5052508;28;20052;-81
2023/10/13 03:30:52;;;;;;;11.35;7.15;;;;;;;;;;5051345;28;20604;-81
2023/10/13 03:33:25;;;;;;;13.57;8.20;;;;;;;;;;5048450;28;20029;-80
2023/10/13 03:35:54;;;;;;;9.48;6.20;;;;;;;;;;5032006;28;20079;-81
2023/10/13 03:38:19;;;;;;;9.05;5.32;;;;;;;;;;5045956;28;20043;-81
2023/10/13 03:40:48;;;;;;;7.47;4.95;;;;;;;;;;5053514;28;20111;-81
2023/10/13 03:43:16;;;;;;;9.05;5.75;;;;;;;;;;5038020;28;20072;-81
2023/10/13 03:45:47;;;;;;;7.18;4.70;;;;;;;;;;5050567;28;20029;-81
2023/10/13 03:48:51;;;;;;;6.45;4.57;;;;;;;;;;5048511;28;20127;-81
2023/10/13 03:51:10;;;;;;;9.38;5.57;;;;;;;;;;5028540;28;20032;-81
2023/10/13 03:53:38;;;;;;;9.00;5.85;;;;;;;;;;5049884;28;20400;-82
2023/10/13 03:56:07;;;;;;;7.82;4.65;;;;;;;;;;5051491;28;20067;-81
2023/10/13 03:58:36;;;;;;;9.05;4.93;;;;;;;;;;5048756;28;20041;-81
2023/10/13 04:01:03;;;;;;;7.40;4.47;;;;;;;;;;5052541;28;20119;-82
2023/10/13 04:03:33;;;;;;;8.38;6.32;;;;;;;;;;5043147;28;20033;-81
2023/10/13 04:06:05;;;;;;;7.82;5.80;;;;;;;;;;5050800;28;20159;-82
2023/10/13 04:08:47;;;;;;;11.98;6.50;;;;;;;;;;5052310;28;20041;-83
2023/10/13 04:16:52;;;;;;;9.98;5.22;;;;;;;;;;5046211;28;20071;-83
2023/10/13 04:19:22;;;;;;;6.97;4.50;;;;;;;;;;5043647;28;20061;-83
2023/10/13 04:21:58;;;;;;;8.25;4.70;;;;;;;;;;5044318;28;20402;-81
2023/10/13 04:24:39;;;;;;;8.57;4.45;;;;;;;;;;5048481;28;20497;-81
2023/10/13 04:27:39;;;;;;;7.22;5.07;;;;;;;;;;5049214;28;20028;-81
2023/10/13 04:32:38;;;;;;;8.55;4.47;;;;;;;;;;5044159;28;20017;-82
2023/10/13 04:40:17;;;;;;;6.32;4.32;;;;;;;;;;5049467;28;20036;-82
2023/10/13 04:42:53;;;;;;;10.27;5.20;;;;;;;;;;5043191;28;20061;-82
2023/10/13 04:45:38;;;;;;;8.90;5.28;;;;;;;;;;5041621;28;20032;-81
2023/10/13 04:48:17;;;;;;;7.57;4.25;;;;;;;;;;5048181;28;20037;-81
2023/10/13 04:50:47;;;;;;;8.15;4.68;;;;;;;;;;5051702;28;20423;-81
2023/10/13 04:59:17;;;;;;;8.13;5.00;;;;;;;;;;5048361;28;20051;-83
2023/10/13 05:48:19;;;;;;;10.05;6.18;;;;;;;;;;5046697;28;20083;-82
2023/10/13 05:51:31;;;;;;;11.30;5.90;;;;;;;;;;5029336;28;20024;-82
2023/10/13 06:29:07;;;;;;;9.38;5.55;;;;;;;;;;5047557;28;20078;-82
2023/10/13 06:31:34;;;;;;;9.35;5.82;;;;;;;;;;5027147;28;20033;-82
2023/10/13 06:34:03;;;;;;;12.02;6.40;;;;;;;;;;5045775;28;20102;-82
2023/10/13 06:36:28;;;;;;;9.00;5.72;;;;;;;;;;5041251;28;20402;-82
2023/10/13 06:39:25;;;;;;;8.57;5.47;;;;;;;;;;5052075;28;20021;-82
2023/10/13 06:41:41;;;;;;;8.85;5.20;;;;;;;;;;5027975;28;20021;-82
2023/10/13 06:44:14;;;;;;;9.68;5.70;;;;;;;;;;5045346;28;20028;-82
2023/10/13 06:46:40;;;;;;;7.43;4.55;;;;;;;;;;5048672;28;20025;-82
2023/10/13 06:49:05;;;;;;;9.13;5.10;;;;;;;;;;5052928;28;20025;-82
2023/10/13 06:51:37;;;;;;;7.93;5.77;;;;;;;;;;5045270;28;20065;-82
2023/10/13 06:54:03;;;;;;;8.93;5.28;;;;;;;;;;5053028;28;20366;-82
2023/10/13 06:56:28;;;;;;;9.50;6.30;;;;;;;;;;5052603;28;20461;-82
2023/10/13 06:58:59;;;;;;;9.20;5.65;;;;;;;;;;5054970;28;20037;-82
2023/10/13 07:01:25;;;;;;;7.57;4.40;;;;;;;;;;5048411;28;20453;-82
2023/10/13 07:03:54;;;;;;;11.43;6.45;;;;;;;;;;5050061;28;20057;-82
2023/10/13 07:06:22;;;;;;;9.07;6.05;;;;;;;;;;5053626;28;20035;-82
2023/10/13 07:08:53;;;;;;;10.85;4.63;;;;;;;;;;5055288;28;20033;-82
2023/10/13 07:11:37;;;;;;;10.02;4.70;;;;;;;;;;5037729;28;20464;-82
2023/10/13 07:14:16;;;;;;;7.93;4.47;;;;;;;;;;5050268;28;20029;-82
2023/10/13 07:16:58;;;;;;;8.90;4.97;;;;;;;;;;5045921;28;20034;-82
2023/10/13 07:19:24;;;;;;;8.18;5.30;;;;;;;;;;5045262;28;20257;-82
2023/10/13 07:21:58;;;;;;;6.97;4.30;;;;;;;;;;5104916;23;20057;-79
2023/10/13 07:24:24;;;;;;;7.53;4.45;;;;;;;;;;5056391;28;20028;-80
2023/10/13 07:26:57;;;;;;;8.48;4.43;;;;;;;;;;5060054;28;20054;-80
2023/10/13 07:29:24;;;;;;;12.90;4.78;;;;;;;;;;5062087;28;20413;-80
2023/10/13 07:31:50;;;;;;;9.23;4.88;;;;;;;;;;5079842;28;20074;-79
2023/10/13 07:34:26;;;;;;;9.32;4.72;;;;;;;;;;5085866;28;20024;-80
2023/10/13 07:37:07;;;;;;;8.13;4.13;;;;;;;;;;5052296;28;20031;-80
2023/10/13 07:39:33;;;;;;;6.82;4.20;;;;;;;;;;5072216;28;20028;-79
2023/10/13 07:42:08;;;;;;;6.55;4.47;;;;;;;;;;5057820;28;20033;-80
2023/10/13 07:44:33;;;;;;;7.38;3.97;;;;;;;;;;5065811;28;20106;-80
2023/10/13 07:47:07;;;;;;;9.57;5.07;;;;;;;;;;5051954;28;20040;-79
2023/10/13 07:49:36;;;;;;;11.48;4.65;;;;;;;;;;5072726;28;20036;-79
2023/10/13 07:52:14;;;;;;;5.97;3.90;;;;;;;;;;5073738;28;20029;-80
2023/10/13 07:54:44;;;;;;;7.68;4.50;;;;;;;;;;5079123;28;20060;-80
2023/10/13 07:57:09;;;;;;;6.55;3.42;;;;;;;;;;5082307;28;20066;-80
2023/10/13 07:59:35;;;;;;;14.63;5.37;;;;;;;;;;5062761;28;20031;-78
2023/10/13 08:02:12;;;;;;;6.57;3.60;;;;;;;;;;5082656;28;20707;-80
2023/10/13 08:04:37;;;;;;;8.13;4.15;;;;;;;;;;5073959;28;20032;-80
2023/10/13 08:07:12;;;;;;;5.97;3.78;;;;;;;;;;5057100;28;20032;-80
2023/10/13 08:09:41;;;;;;;9.52;4.15;;;;;;;;;;5057706;28;20198;-80
2023/10/13 08:12:11;;;;;;;6.90;3.92;;;;;;;;;;5077648;28;20028;-80
2023/10/13 08:14:38;;;;;;;8.27;4.65;;;;;;;;;;5067049;28;20111;-80
2023/10/13 08:17:07;;;;;;;6.97;3.50;;;;;;;;;;5061356;28;20496;-80
2023/10/13 08:19:45;;;;;;;6.07;3.13;;;;;;;;;;5073947;28;20083;-80
2023/10/13 08:45:20;;;;;;;8.10;3.85;;;;;;;;;;5058462;28;20454;-80
2023/10/13 08:56:05;;;;;;;5.70;3.47;;;;;;;;;;5078713;28;20107;-80
2023/10/13 09:01:34;;;;;;;6.45;3.03;;;;;;;;;;5055637;28;20039;-81
2023/10/13 09:06:46;;;;;;;7.07;2.50;;;;;;;;;;5073447;28;20040;-81
2023/10/13 09:09:26;;;;;;;8.93;4.32;;;;;;;;;;5077370;28;20024;-81
2023/10/13 09:12:04;;;;;;;5.75;3.63;;;;;;;;;;5052570;28;20028;-81
2023/10/13 09:14:33;;;;;;;7.72;3.80;;;;;;;;;;5061900;28;20032;-82
2023/10/13 09:17:48;;;;;;;5.93;3.70;;;;;;;;;;5075404;28;20386;-81
2023/10/13 09:19:56;;;;;;;6.63;3.40;;;;;;;;;;5050955;28;20097;-80
2023/10/13 09:22:26;;;;;;;9.40;4.00;;;;;;;;;;5062729;28;20452;-82
2023/10/13 09:24:53;;;;;;;7.45;3.30;;;;;;;;;;5082015;28;20113;-81
2023/10/13 09:27:18;;;;;;;6.55;3.33;;;;;;;;;;5062164;28;20029;-82
2023/10/13 09:29:53;;;;;;;8.93;3.75;;;;;;;;;;5076890;28;20036;-82
2023/10/13 09:32:20;;;;;;;8.90;3.72;;;;;;;;;;5071465;28;20546;-82
2023/10/13 09:34:48;;;;;;;8.45;2.70;;;;;;;;;;5063034;28;20523;-81
2023/10/13 09:37:20;;;;;;;9.00;4.45;;;;;;;;;;5080804;28;20492;-82
2023/10/13 09:39:48;;;;;;;8.13;2.85;;;;;;;;;;5072619;28;20038;-81
2023/10/13 09:42:15;;;;;;;5.68;2.15;;;;;;;;;;5056619;28;20494;-82
2023/10/13 09:44:40;;;;;;;5.75;2.45;;;;;;;;;;5059594;28;20036;-81
2023/10/13 09:47:16;;;;;;;7.10;3.60;;;;;;;;;;5077828;28;20514;-82
2023/10/13 09:49:49;;;;;;;7.22;2.55;;;;;;;;;;5056120;28;20028;-82
2023/10/13 09:52:19;;;;;;;7.13;3.75;;;;;;;;;;5063467;28;20477;-81
2023/10/13 09:55:10;;;;;;;6.25;2.65;;;;;;;;;;5074987;28;20104;-82
2023/10/13 09:57:40;;;;;;;6.00;2.90;;;;;;;;;;5074057;28;20059;-82
2023/10/13 10:00:29;;;;;;;10.13;4.18;;;;;;;;;;5074711;28;20025;-81
2023/10/13 10:02:59;;;;;;;9.02;3.60;;;;;;;;;;5059375;28;20080;-81
2023/10/13 10:05:25;;;;;;;7.03;2.83;;;;;;;;;;5064105;28;20127;-82
2023/10/13 10:07:55;;;;;;;6.18;3.08;;;;;;;;;;5074554;28;20099;-81
2023/10/13 10:10:21;;;;;;;5.57;3.25;;;;;;;;;;5074452;28;20028;-81
2023/10/13 10:12:50;;;;;;;7.78;3.15;;;;;;;;;;5074947;28;20024;-81
2023/10/13 10:15:33;;;;;;;5.95;2.58;;;;;;;;;;5058733;28;20024;-81
2023/10/13 10:18:00;;;;;;;4.18;2.42;;;;;;;;;;5060681;28;20481;-81
2023/10/13 10:20:39;;;;;;;6.43;2.90;;;;;;;;;;5064549;28;20043;-82
2023/10/13 10:23:05;;;;;;;4.60;2.20;;;;;;;;;;5059926;28;20020;-82
2023/10/13 10:25:34;;;;;;;6.72;2.70;;;;;;;;;;5075339;28;20400;-81
2023/10/13 10:28:01;;;;;;;9.55;3.55;;;;;;;;;;5059149;28;20119;-81
2023/10/13 10:30:27;;;;;;;5.65;2.75;;;;;;;;;;5056098;28;20025;-80
2023/10/13 10:32:59;;;;;;;6.55;3.10;;;;;;;;;;5062155;28;20040;-80
2023/10/13 10:35:29;;;;;;;5.93;2.95;;;;;;;;;;5060786;28;20090;-80
2023/10/13 10:38:03;;;;;;;7.78;3.03;;;;;;;;;;5070422;28;20037;-81
2023/10/13 10:40:47;;;;;;;11.85;3.80;;;;;;;;;;5061256;28;20059;-80
2023/10/13 10:43:17;;;;;;;7.72;3.50;;;;;;;;;;5076711;28;20036;-82
2023/10/13 10:45:45;;;;;;;10.45;4.15;;;;;;;;;;5042485;28;20121;-80
2023/10/13 10:48:18;;;;;;;6.97;3.42;;;;;;;;;;5062163;28;20089;-81
2023/10/13 10:50:55;;;;;;;6.18;3.85;;;;;;;;;;5074919;28;20064;-82
2023/10/13 10:53:22;;;;;;;7.35;4.05;;;;;;;;;;5056357;28;20038;-82
2023/10/13 10:55:47;;;;;;;8.00;3.33;;;;;;;;;;5076115;28;20104;-82
2023/10/13 10:58:28;;;;;;;8.48;3.90;;;;;;;;;;5067670;28;20075;-81
2023/10/13 11:01:09;;;;;;;7.28;3.83;;;;;;;;;;5057774;28;20458;-82
2023/10/13 11:03:37;;;;;;;8.10;4.60;;;;;;;;;;5055447;28;20024;-82
2023/10/13 11:06:03;;;;;;;9.32;4.45;;;;;;;;;;5074320;28;20028;-81
2023/10/13 11:08:31;;;;;;;9.10;3.88;;;;;;;;;;5079484;28;20042;-82
2023/10/13 11:10:57;;;;;;;11.00;4.25;;;;;;;;;;5061485;28;20416;-82
2023/10/13 11:13:22;;;;;;;7.78;3.70;;;;;;;;;;5048524;28;20028;-82
2023/10/13 11:15:48;;;;;;;7.28;3.60;;;;;;;;;;5074236;28;20438;-82
2023/10/13 11:18:20;;;;;;;7.22;3.47;;;;;;;;;;5058666;28;20085;-82
2023/10/13 11:20:46;;;;;;;12.32;3.60;;;;;;;;;;5049098;28;20029;-82
2023/10/13 11:23:11;;;;;;;8.45;4.32;;;;;;;;;;5064065;28;20032;-82
2023/10/13 11:25:37;;;;;;;9.25;4.35;;;;;;;;;;5064411;28;20496;-81
2023/10/13 11:28:27;;;;;;;9.23;3.65;;;;;;;;;;5064104;28;20136;-82
2023/10/13 11:30:53;;;;;;;9.50;3.88;;;;;;;;;;5059977;28;20028;-82
2023/10/13 11:33:23;;;;;;;9.23;4.50;;;;;;;;;;5063932;28;20554;-82
2023/10/13 11:35:48;;;;;;;8.55;4.07;;;;;;;;;;5073235;28;20033;-82
2023/10/13 11:38:15;;;;;;;8.45;4.00;;;;;;;;;;5081876;28;20040;-82
2023/10/13 11:40:43;;;;;;;10.32;3.40;;;;;;;;;;5066223;28;20404;-82
2023/10/13 11:43:15;;;;;;;9.60;4.43;;;;;;;;;;5077213;28;20035;-82
2023/10/13 11:46:12;;;;;;;10.77;5.10;;;;;;;;;;5074870;28;20565;-82
2023/10/13 11:48:38;;;;;;;9.48;3.95;;;;;;;;;;5073510;28;20519;-81
2023/10/13 11:51:08;;;;;;;8.70;3.90;;;;;;;;;;5062170;28;20025;-82
2023/10/13 11:53:34;;;;;;;11.48;4.28;;;;;;;;;;5081368;28;20058;-82
2023/10/13 11:55:59;;;;;;;11.07;5.00;;;;;;;;;;5064071;28;20047;-81
2023/10/13 11:58:24;;;;;;;10.52;3.92;;;;;;;;;;5082071;28;20408;-82
2023/10/13 12:06:22;;;;;;;7.95;3.83;;;;;;;;;;5083446;28;20032;-81
2023/10/13 12:08:51;;;;;;;9.45;4.10;;;;;;;;;;5065161;28;20040;-82
2023/10/13 12:11:32;;;;;;;11.52;4.10;;;;;;;;;;5084528;28;20029;-82
2023/10/13 12:13:57;;;;;;;8.90;3.38;;;;;;;;;;5077699;28;20546;-82
2023/10/13 12:16:23;;;;;;;9.25;4.00;;;;;;;;;;5064029;28;20028;-82
2023/10/13 12:18:53;;;;;;;8.98;3.92;;;;;;;;;;5062845;28;20410;-82
2023/10/13 12:21:21;;;;;;;10.48;4.63;;;;;;;;;;5077502;28;20036;-82
2023/10/13 12:23:47;;;;;;;13.60;4.72;;;;;;;;;;5083986;28;20061;-82
2023/10/13 12:26:32;;;;;;;10.68;3.78;;;;;;;;;;5065805;28;20033;-82
2023/10/13 12:29:06;;;;;;;7.88;3.55;;;;;;;;;;5074134;28;20027;-82
2023/10/13 12:31:32;;;;;;;9.85;4.03;;;;;;;;;;5075779;28;20434;-82
2023/10/13 12:34:06;;;;;;;9.88;3.70;;;;;;;;;;5059819;28;20032;-82
2023/10/13 12:36:40;;;;;;;10.95;3.38;;;;;;;;;;5064693;28;20087;-82
2023/10/13 12:52:20;;;;;;;6.78;3.92;;;;;;;;;;5055459;28;20031;-81
2023/10/13 12:57:23;;;;;;;9.23;3.90;;;;;;;;;;5056923;28;20063;-82
2023/10/13 12:59:49;;;;;;;10.93;3.78;;;;;;;;;;5075608;28;20396;-82
2023/10/13 13:02:14;;;;;;;9.75;4.10;;;;;;;;;;5063059;28;20062;-81
2023/10/13 13:04:43;;;;;;;13.77;4.03;;;;;;;;;;5077593;28;20029;-81
2023/10/13 13:07:13;;;;;;;7.93;3.65;;;;;;;;;;5082005;28;20040;-82
2023/10/13 13:09:38;;;;;;;11.35;4.15;;;;;;;;;;5055269;28;20024;-83
2023/10/13 13:12:05;;;;;;;11.80;3.70;;;;;;;;;;5076849;28;20032;-82
2023/10/13 13:14:33;;;;;;;10.77;3.58;;;;;;;;;;5080076;28;20276;-82
2023/10/13 13:17:04;;;;;;;11.90;3.55;;;;;;;;;;5061908;28;20036;-82
2023/10/13 13:19:35;;;;;;;9.85;3.45;;;;;;;;;;5083332;28;20020;-81
2023/10/13 13:22:01;;;;;;;11.10;4.28;;;;;;;;;;5060745;28;20043;-82
2023/10/13 13:24:29;;;;;;;9.93;3.75;;;;;;;;;;5060261;28;20095;-82
2023/10/13 13:26:55;;;;;;;13.80;3.38;;;;;;;;;;5074265;28;20036;-81
2023/10/13 13:29:20;;;;;;;7.40;3.00;;;;;;;;;;5076190;28;20108;-82
2023/10/13 13:31:46;;;;;;;12.93;4.13;;;;;;;;;;5082506;28;20050;-82
2023/10/13 13:34:12;;;;;;;9.40;3.90;;;;;;;;;;5083727;28;20028;-82
2023/10/13 13:39:09;;;;;;;9.65;4.30;;;;;;;;;;5075229;28;20503;-82
2023/10/13 13:41:34;;;;;;;9.68;3.97;;;;;;;;;;5074076;28;20032;-82
2023/10/13 13:44:13;;;;;;;12.50;3.73;;;;;;;;;;5077939;28;20040;-82
2023/10/13 13:46:41;;;;;;;9.65;3.47;;;;;;;;;;5078831;28;20293;-82
2023/10/13 13:49:07;;;;;;;7.80;3.55;;;;;;;;;;5061428;28;20043;-83
2023/10/13 13:51:33;;;;;;;8.13;3.55;;;;;;;;;;5051242;28;20121;-82
2023/10/13 13:53:59;;;;;;;8.50;3.60;;;;;;;;;;5075114;28;20486;-82
2023/10/13 13:56:25;;;;;;;10.90;3.95;;;;;;;;;;5068469;28;20036;-82
2023/10/13 13:58:51;;;;;;;7.90;4.00;;;;;;;;;;5075606;28;20042;-82
2023/10/13 14:01:19;;;;;;;8.90;4.13;;;;;;;;;;5074625;28;20029;-82
2023/10/13 14:03:50;;;;;;;9.70;4.03;;;;;;;;;;5050919;28;20123;-83
2023/10/13 14:06:26;;;;;;;8.70;3.58;;;;;;;;;;5045698;28;20097;-83
2023/10/13 14:08:56;;;;;;;6.38;3.25;;;;;;;;;;5056195;28;20110;-83
2023/10/13 14:12:25;;;;;;;10.88;4.10;;;;;;;;;;5071633;28;20074;-83
2023/10/13 14:16:49;;;;;;;8.48;3.72;;;;;;;;;;5071201;28;20055;-82
2023/10/13 14:19:26;;;;;;;12.27;4.07;;;;;;;;;;5071709;28;20055;-83
2023/10/13 14:21:53;;;;;;;11.77;3.38;;;;;;;;;;5069241;28;20027;-83
2023/10/13 14:24:18;;;;;;;7.55;3.53;;;;;;;;;;5057129;28;20021;-83
2023/10/13 14:26:44;;;;;;;9.88;3.38;;;;;;;;;;5074637;28;20028;-81
2023/10/13 14:29:09;;;;;;;7.97;4.43;;;;;;;;;;5059051;28;20032;-85
2023/10/13 14:31:36;;;;;;;10.40;4.60;;;;;;;;;;5077578;28;20031;-83
2023/10/13 14:34:02;;;;;;;8.98;4.05;;;;;;;;;;5056925;28;20495;-84
2023/10/13 14:36:28;;;;;;;7.63;4.43;;;;;;;;;;5057234;28;20029;-83
2023/10/13 14:38:53;;;;;;;9.98;3.95;;;;;;;;;;5057700;28;20111;-84
2023/10/13 14:41:18;;;;;;;9.60;3.33;;;;;;;;;;5078631;28;20063;-83
2023/10/13 14:43:47;;;;;;;10.13;4.80;;;;;;;;;;5071411;28;20078;-84
2023/10/13 14:46:24;;;;;;;13.35;3.88;;;;;;;;;;5058660;28;20851;-83
2023/10/13 14:48:52;;;;;;;10.02;3.72;;;;;;;;;;5075597;28;20094;-84
2023/10/13 14:51:18;;;;;;;10.40;3.55;;;;;;;;;;5076196;28;20024;-84
2023/10/13 14:53:43;;;;;;;8.13;3.92;;;;;;;;;;5078781;28;20115;-84
2023/10/13 14:56:10;;;;;;;10.15;4.00;;;;;;;;;;5077911;28;20400;-84
2023/10/13 14:58:35;;;;;;;10.43;4.65;;;;;;;;;;5065432;28;20054;-84
2023/10/13 15:01:00;;;;;;;10.17;4.67;;;;;;;;;;5077469;28;20028;-84
2023/10/13 15:03:26;;;;;;;8.80;3.72;;;;;;;;;;5077632;28;20274;-84
2023/10/13 15:05:51;;;;;;;9.20;3.60;;;;;;;;;;5081705;28;20443;-84
2023/10/13 15:08:18;;;;;;;11.97;5.07;;;;;;;;;;5080240;28;20025;-83
2023/10/13 15:10:44;;;;;;;9.40;4.13;;;;;;;;;;5079461;28;20048;-84
2023/10/13 15:13:10;;;;;;;7.75;4.43;;;;;;;;;;5079109;28;20021;-84
2023/10/13 15:15:35;;;;;;;8.43;3.43;;;;;;;;;;5072196;28;20495;-84
2023/10/13 15:18:00;;;;;;;6.40;3.47;;;;;;;;;;5060917;28;20278;-84
2023/10/13 15:20:26;;;;;;;7.63;3.50;;;;;;;;;;5078401;28;20028;-84
2023/10/13 15:22:59;;;;;;;9.13;3.42;;;;;;;;;;5068583;28;20978;-85
2023/10/13 15:25:39;;;;;;;8.73;4.55;;;;;;;;;;5063503;28;20039;-85
2023/10/13 15:28:05;;;;;;;7.47;3.90;;;;;;;;;;5071855;28;20025;-84
2023/10/13 15:30:44;;;;;;;8.88;3.65;;;;;;;;;;5073784;28;20035;-82
2023/10/13 15:33:10;;;;;;;6.97;3.63;;;;;;;;;;5060836;28;20078;-84
2023/10/13 15:35:37;;;;;;;8.85;3.90;;;;;;;;;;5084157;28;20033;-84
2023/10/13 15:38:02;;;;;;;8.05;3.70;;;;;;;;;;5082411;28;20047;-83
2023/10/13 15:40:28;;;;;;;7.35;3.42;;;;;;;;;;5063140;28;20029;-82
2023/10/13 15:42:59;;;;;;;9.50;4.07;;;;;;;;;;5049622;28;20040;-83
2023/10/13 15:45:24;;;;;;;10.73;4.75;;;;;;;;;;5055967;28;20336;-83
2023/10/13 15:47:49;;;;;;;9.70;4.28;;;;;;;;;;5070546;28;20489;-84
2023/10/13 15:50:15;;;;;;;11.73;4.35;;;;;;;;;;5058871;28;20036;-84
2023/10/13 15:52:46;;;;;;;10.88;5.18;;;;;;;;;;5084891;28;20039;-84
2023/10/13 15:55:15;;;;;;;5.93;3.60;;;;;;;;;;5053880;28;20113;-83
2023/10/13 15:57:41;;;;;;;11.13;3.92;;;;;;;;;;5077255;28;20028;-84
2023/10/13 16:00:22;;;;;;;6.65;3.45;;;;;;;;;;5078160;28;20040;-83
2023/10/13 16:02:52;;;;;;;6.72;3.33;;;;;;;;;;5081813;28;20217;-82
2023/10/13 16:05:17;;;;;;;8.48;3.72;;;;;;;;;;5081815;28;20094;-84
2023/10/13 16:07:43;;;;;;;9.30;3.70;;;;;;;;;;5082199;28;20033;-83
2023/10/13 16:10:11;;;;;;;9.95;4.03;;;;;;;;;;5073007;28;20549;-83
2023/10/13 16:12:37;;;;;;;9.50;3.00;;;;;;;;;;5053897;28;20089;-83
2023/10/13 16:15:05;;;;;;;12.35;3.40;;;;;;;;;;5074631;28;20024;-83
2023/10/13 16:17:31;;;;;;;8.48;3.95;;;;;;;;;;5071775;28;20043;-82
2023/10/13 16:19:56;;;;;;;7.90;3.85;;;;;;;;;;5075329;28;20044;-83
2023/10/13 16:22:21;;;;;;;7.07;3.97;;;;;;;;;;5042961;28;20036;-83
2023/10/13 16:24:47;;;;;;;8.32;3.35;;;;;;;;;;5075511;28;20312;-82
2023/10/13 16:27:14;;;;;;;8.80;3.63;;;;;;;;;;5067926;28;20045;-83
2023/10/13 16:29:42;;;;;;;6.88;3.67;;;;;;;;;;5074543;28;20119;-83
2023/10/13 16:32:08;;;;;;;9.15;3.40;;;;;;;;;;5071038;28;20029;-83
2023/10/13 16:34:34;;;;;;;8.13;2.78;;;;;;;;;;5080726;28;20032;-84
2023/10/13 16:37:04;;;;;;;8.55;3.58;;;;;;;;;;5072036;28;20039;-84
2023/10/13 16:39:30;;;;;;;8.23;3.85;;;;;;;;;;5067976;28;20028;-83
2023/10/13 16:41:55;;;;;;;12.18;3.72;;;;;;;;;;5070758;28;20030;-83
2023/10/13 16:44:26;;;;;;;12.00;3.87;;;;;;;;;;5074927;28;20042;-83
2023/10/13 16:46:56;;;;;;;9.13;3.83;;;;;;;;;;5070488;28;20283;-83
2023/10/13 16:49:21;;;;;;;7.55;3.50;;;;;;;;;;5080788;28;20032;-83
2023/10/13 16:51:47;;;;;;;12.47;4.10;;;;;;;;;;5069004;28;20028;-84
2023/10/13 16:54:12;;;;;;;6.93;3.53;;;;;;;;;;5069227;28;20300;-83
2023/10/13 16:56:38;;;;;;;6.90;3.23;;;;;;;;;;5056046;28;20033;-83
2023/10/13 16:59:05;;;;;;;11.18;4.00;;;;;;;;;;5067276;28;20316;-83
2023/10/13 17:01:30;;;;;;;8.60;3.38;;;;;;;;;;5061224;28;20503;-84
2023/10/13 17:03:56;;;;;;;12.85;3.78;;;;;;;;;;5076894;28;20028;-84
2023/10/13 17:06:22;;;;;;;6.30;3.53;;;;;;;;;;5071280;28;20393;-84
2023/10/13 17:08:47;;;;;;;6.60;3.00;;;;;;;;;;5070353;28;20113;-83
2023/10/13 17:11:13;;;;;;;6.95;3.55;;;;;;;;;;5063258;28;20393;-85
2023/10/13 17:13:39;;;;;;;7.97;3.33;;;;;;;;;;5055737;28;20369;-83
2023/10/13 17:16:15;;;;;;;6.97;3.05;;;;;;;;;;5069059;28;20040;-83
2023/10/13 17:18:41;;;;;;;5.85;3.00;;;;;;;;;;5068076;28;20033;-83
2023/10/13 17:21:24;;;;;;;7.03;3.38;;;;;;;;;;5062153;28;20039;-83
2023/10/13 17:23:52;;;;;;;9.95;3.08;;;;;;;;;;5067320;28;20036;-83
2023/10/13 17:26:18;;;;;;;7.95;3.08;;;;;;;;;;5068599;28;20071;-84
2023/10/13 17:28:43;;;;;;;7.03;2.90;;;;;;;;;;5076498;28;20067;-83
2023/10/13 17:31:08;;;;;;;10.43;3.65;;;;;;;;;;5079021;28;20067;-82
2023/10/13 17:33:38;;;;;;;9.90;3.17;;;;;;;;;;5069141;28;20035;-84
2023/10/13 17:36:06;;;;;;;10.02;3.40;;;;;;;;;;5053261;28;20494;-84
2023/10/13 17:38:31;;;;;;;8.55;3.28;;;;;;;;;;5067832;28;20120;-83
2023/10/13 17:40:59;;;;;;;7.30;3.27;;;;;;;;;;5056629;28;20090;-84